sensor_id;sensor_type;location;lat;lon;timestamp;P1;durP1;ratioP1;P2;durP2;ratioP2
59062;SDS011;44851;45.648;9.004;2024-03-22T00:02:06;88.93;;;69.40;;
59062;SDS011;44851;45.648;9.004;2024-03-22T00:04:32;97.20;;;74.60;;
59062;SDS011;44851;45.648;9.004;2024-03-22T00:06:57;96.03;;;75.63;;
59062;SDS011;44851;45.648;9.004;2024-03-22T00:09:23;93.00;;;73.83;;
59062;SDS011;44851;45.648;9.004;2024-03-22T00:11:48;91.27;;;74.50;;
59062;SDS011;44851;45.648;9.004;2024-03-22T00:14:14;97.90;;;75.20;;
59062;SDS011;44851;45.648;9.004;2024-03-22T00:16:39;88.90;;;69.83;;
59062;SDS011;44851;45.648;9.004;2024-03-22T00:19:04;92.90;;;71.27;;
59062;SDS011;44851;45.648;9.004;2024-03-22T00:21:30;91.40;;;73.13;;
59062;SDS011;44851;45.648;9.004;2024-03-22T00:23:56;99.43;;;78.47;;
59062;SDS011;44851;45.648;9.004;2024-03-22T00:26:22;89.40;;;69.80;;
59062;SDS011;44851;45.648;9.004;2024-03-22T00:28:47;90.07;;;69.57;;
59062;SDS011;44851;45.648;9.004;2024-03-22T00:31:13;87.53;;;69.40;;
59062;SDS011;44851;45.648;9.004;2024-03-22T00:33:39;90.77;;;69.83;;
59062;SDS011;44851;45.648;9.004;2024-03-22T00:36:04;91.73;;;74.63;;
59062;SDS011;44851;45.648;9.004;2024-03-22T00:38:30;86.43;;;70.50;;
59062;SDS011;44851;45.648;9.004;2024-03-22T00:40:55;87.77;;;70.50;;
59062;SDS011;44851;45.648;9.004;2024-03-22T00:43:21;90.53;;;71.30;;
59062;SDS011;44851;45.648;9.004;2024-03-22T00:45:46;81.70;;;66.33;;
59062;SDS011;44851;45.648;9.004;2024-03-22T00:48:12;86.63;;;70.60;;
59062;SDS011;44851;45.648;9.004;2024-03-22T00:50:38;90.93;;;72.93;;
59062;SDS011;44851;45.648;9.004;2024-03-22T00:53:03;86.80;;;69.10;;
59062;SDS011;44851;45.648;9.004;2024-03-22T00:55:30;91.17;;;70.97;;
59062;SDS011;44851;45.648;9.004;2024-03-22T00:57:55;85.47;;;68.77;;
59062;SDS011;44851;45.648;9.004;2024-03-22T01:00:21;89.37;;;71.27;;
59062;SDS011;44851;45.648;9.004;2024-03-22T01:02:46;88.93;;;71.70;;
59062;SDS011;44851;45.648;9.004;2024-03-22T01:05:11;91.30;;;76.17;;
59062;SDS011;44851;45.648;9.004;2024-03-22T01:07:37;91.50;;;73.17;;
59062;SDS011;44851;45.648;9.004;2024-03-22T01:10:03;97.40;;;76.67;;
59062;SDS011;44851;45.648;9.004;2024-03-22T01:12:29;92.73;;;74.47;;
59062;SDS011;44851;45.648;9.004;2024-03-22T01:14:54;97.00;;;76.93;;
59062;SDS011;44851;45.648;9.004;2024-03-22T01:17:20;101.73;;;77.10;;
59062;SDS011;44851;45.648;9.004;2024-03-22T01:19:45;95.20;;;76.70;;
59062;SDS011;44851;45.648;9.004;2024-03-22T01:22:10;98.23;;;76.00;;
59062;SDS011;44851;45.648;9.004;2024-03-22T01:24:36;95.67;;;77.00;;
59062;SDS011;44851;45.648;9.004;2024-03-22T01:27:01;95.43;;;74.07;;
59062;SDS011;44851;45.648;9.004;2024-03-22T01:29:26;93.00;;;73.67;;
59062;SDS011;44851;45.648;9.004;2024-03-22T01:31:55;105.70;;;81.50;;
59062;SDS011;44851;45.648;9.004;2024-03-22T01:34:20;97.00;;;76.27;;
59062;SDS011;44851;45.648;9.004;2024-03-22T01:36:46;99.90;;;76.77;;
59062;SDS011;44851;45.648;9.004;2024-03-22T01:39:11;93.23;;;75.67;;
59062;SDS011;44851;45.648;9.004;2024-03-22T01:41:36;97.13;;;76.17;;
59062;SDS011;44851;45.648;9.004;2024-03-22T01:44:02;99.40;;;78.00;;
59062;SDS011;44851;45.648;9.004;2024-03-22T01:46:27;101.77;;;78.83;;
59062;SDS011;44851;45.648;9.004;2024-03-22T01:48:52;93.90;;;74.10;;
59062;SDS011;44851;45.648;9.004;2024-03-22T01:51:18;99.27;;;76.53;;
59062;SDS011;44851;45.648;9.004;2024-03-22T01:53:43;96.70;;;74.73;;
59062;SDS011;44851;45.648;9.004;2024-03-22T01:56:09;94.90;;;75.00;;
59062;SDS011;44851;45.648;9.004;2024-03-22T01:58:35;98.90;;;77.90;;
59062;SDS011;44851;45.648;9.004;2024-03-22T02:01:01;98.37;;;77.03;;
59062;SDS011;44851;45.648;9.004;2024-03-22T02:03:27;99.63;;;79.87;;
59062;SDS011;44851;45.648;9.004;2024-03-22T02:05:55;99.67;;;76.13;;
59062;SDS011;44851;45.648;9.004;2024-03-22T02:08:21;102.67;;;79.77;;
59062;SDS011;44851;45.648;9.004;2024-03-22T02:10:46;112.07;;;84.23;;
59062;SDS011;44851;45.648;9.004;2024-03-22T02:13:11;104.20;;;78.10;;
59062;SDS011;44851;45.648;9.004;2024-03-22T02:15:37;99.90;;;79.00;;
59062;SDS011;44851;45.648;9.004;2024-03-22T02:18:02;105.83;;;80.03;;
59062;SDS011;44851;45.648;9.004;2024-03-22T02:20:28;99.80;;;78.10;;
59062;SDS011;44851;45.648;9.004;2024-03-22T02:22:53;100.23;;;76.27;;
59062;SDS011;44851;45.648;9.004;2024-03-22T02:25:18;101.77;;;78.83;;
59062;SDS011;44851;45.648;9.004;2024-03-22T02:27:44;98.93;;;76.80;;
59062;SDS011;44851;45.648;9.004;2024-03-22T02:30:09;102.07;;;79.47;;
59062;SDS011;44851;45.648;9.004;2024-03-22T02:32:34;103.07;;;78.97;;
59062;SDS011;44851;45.648;9.004;2024-03-22T02:35:00;104.97;;;78.40;;
59062;SDS011;44851;45.648;9.004;2024-03-22T02:37:25;103.70;;;78.77;;
59062;SDS011;44851;45.648;9.004;2024-03-22T02:39:50;105.77;;;78.80;;
59062;SDS011;44851;45.648;9.004;2024-03-22T02:42:16;102.07;;;78.33;;
59062;SDS011;44851;45.648;9.004;2024-03-22T02:44:41;103.83;;;78.67;;
59062;SDS011;44851;45.648;9.004;2024-03-22T02:47:09;103.93;;;77.90;;
59062;SDS011;44851;45.648;9.004;2024-03-22T02:49:35;103.97;;;79.57;;
59062;SDS011;44851;45.648;9.004;2024-03-22T02:52:01;103.27;;;82.10;;
59062;SDS011;44851;45.648;9.004;2024-03-22T02:54:26;104.00;;;80.47;;
59062;SDS011;44851;45.648;9.004;2024-03-22T02:56:52;105.93;;;78.53;;
59062;SDS011;44851;45.648;9.004;2024-03-22T02:59:17;102.70;;;78.73;;
59062;SDS011;44851;45.648;9.004;2024-03-22T03:01:42;105.30;;;79.97;;
59062;SDS011;44851;45.648;9.004;2024-03-22T03:04:08;105.63;;;80.67;;
59062;SDS011;44851;45.648;9.004;2024-03-22T03:06:33;105.23;;;79.77;;
59062;SDS011;44851;45.648;9.004;2024-03-22T03:08:58;103.83;;;78.33;;
59062;SDS011;44851;45.648;9.004;2024-03-22T03:11:24;108.47;;;81.33;;
59062;SDS011;44851;45.648;9.004;2024-03-22T03:13:49;104.80;;;80.97;;
59062;SDS011;44851;45.648;9.004;2024-03-22T03:16:14;106.80;;;81.33;;
59062;SDS011;44851;45.648;9.004;2024-03-22T03:18:40;100.43;;;77.87;;
59062;SDS011;44851;45.648;9.004;2024-03-22T03:21:06;106.53;;;81.17;;
59062;SDS011;44851;45.648;9.004;2024-03-22T03:23:31;107.43;;;82.00;;
59062;SDS011;44851;45.648;9.004;2024-03-22T03:25:57;108.90;;;82.43;;
59062;SDS011;44851;45.648;9.004;2024-03-22T03:28:22;117.33;;;86.37;;
59062;SDS011;44851;45.648;9.004;2024-03-22T03:30:47;112.83;;;85.20;;
59062;SDS011;44851;45.648;9.004;2024-03-22T03:33:13;123.03;;;90.67;;
59062;SDS011;44851;45.648;9.004;2024-03-22T03:35:38;121.27;;;90.80;;
59062;SDS011;44851;45.648;9.004;2024-03-22T03:38:03;124.07;;;91.13;;
59062;SDS011;44851;45.648;9.004;2024-03-22T03:40:29;128.17;;;92.27;;
59062;SDS011;44851;45.648;9.004;2024-03-22T03:42:54;124.57;;;90.33;;
59062;SDS011;44851;45.648;9.004;2024-03-22T03:45:19;116.73;;;86.23;;
59062;SDS011;44851;45.648;9.004;2024-03-22T03:47:45;122.07;;;91.10;;
59062;SDS011;44851;45.648;9.004;2024-03-22T03:50:10;117.27;;;88.73;;
59062;SDS011;44851;45.648;9.004;2024-03-22T03:52:35;113.47;;;85.17;;
59062;SDS011;44851;45.648;9.004;2024-03-22T03:55:01;119.30;;;87.30;;
59062;SDS011;44851;45.648;9.004;2024-03-22T03:57:26;117.80;;;86.53;;
59062;SDS011;44851;45.648;9.004;2024-03-22T03:59:51;113.77;;;87.27;;
59062;SDS011;44851;45.648;9.004;2024-03-22T04:02:17;112.60;;;84.60;;
59062;SDS011;44851;45.648;9.004;2024-03-22T04:04:42;111.97;;;84.87;;
59062;SDS011;44851;45.648;9.004;2024-03-22T04:07:07;110.33;;;86.47;;
59062;SDS011;44851;45.648;9.004;2024-03-22T04:09:33;113.87;;;84.70;;
59062;SDS011;44851;45.648;9.004;2024-03-22T04:11:59;113.13;;;85.37;;
59062;SDS011;44851;45.648;9.004;2024-03-22T04:14:25;118.40;;;87.93;;
59062;SDS011;44851;45.648;9.004;2024-03-22T04:16:50;112.23;;;82.03;;
59062;SDS011;44851;45.648;9.004;2024-03-22T04:19:16;117.87;;;88.00;;
59062;SDS011;44851;45.648;9.004;2024-03-22T04:21:42;111.47;;;84.87;;
59062;SDS011;44851;45.648;9.004;2024-03-22T04:24:07;115.80;;;85.40;;
59062;SDS011;44851;45.648;9.004;2024-03-22T04:26:32;108.37;;;82.07;;
59062;SDS011;44851;45.648;9.004;2024-03-22T04:28:58;107.87;;;82.77;;
59062;SDS011;44851;45.648;9.004;2024-03-22T04:31:23;108.67;;;81.63;;
59062;SDS011;44851;45.648;9.004;2024-03-22T04:33:48;106.23;;;80.27;;
59062;SDS011;44851;45.648;9.004;2024-03-22T04:36:14;104.30;;;79.07;;
59062;SDS011;44851;45.648;9.004;2024-03-22T04:38:40;108.33;;;82.90;;
59062;SDS011;44851;45.648;9.004;2024-03-22T04:41:05;105.67;;;80.67;;
59062;SDS011;44851;45.648;9.004;2024-03-22T04:43:31;105.07;;;80.47;;
59062;SDS011;44851;45.648;9.004;2024-03-22T04:45:56;103.33;;;79.57;;
59062;SDS011;44851;45.648;9.004;2024-03-22T04:48:22;108.10;;;84.10;;
59062;SDS011;44851;45.648;9.004;2024-03-22T04:50:48;102.27;;;79.33;;
59062;SDS011;44851;45.648;9.004;2024-03-22T04:53:21;106.93;;;80.17;;
59062;SDS011;44851;45.648;9.004;2024-03-22T04:55:47;105.20;;;79.50;;
59062;SDS011;44851;45.648;9.004;2024-03-22T04:58:14;104.80;;;79.37;;
59062;SDS011;44851;45.648;9.004;2024-03-22T05:00:42;107.83;;;80.70;;
59062;SDS011;44851;45.648;9.004;2024-03-22T05:03:09;105.70;;;80.27;;
59062;SDS011;44851;45.648;9.004;2024-03-22T05:05:34;102.73;;;78.03;;
59062;SDS011;44851;45.648;9.004;2024-03-22T05:08:00;102.87;;;77.37;;
59062;SDS011;44851;45.648;9.004;2024-03-22T05:10:26;102.17;;;76.13;;
59062;SDS011;44851;45.648;9.004;2024-03-22T05:12:51;101.27;;;75.43;;
59062;SDS011;44851;45.648;9.004;2024-03-22T05:15:17;96.80;;;74.53;;
59062;SDS011;44851;45.648;9.004;2024-03-22T05:17:42;99.30;;;75.50;;
59062;SDS011;44851;45.648;9.004;2024-03-22T05:20:09;102.53;;;77.77;;
59062;SDS011;44851;45.648;9.004;2024-03-22T05:22:39;101.63;;;75.83;;
59062;SDS011;44851;45.648;9.004;2024-03-22T05:25:04;95.40;;;74.77;;
59062;SDS011;44851;45.648;9.004;2024-03-22T05:27:32;96.77;;;74.30;;
59062;SDS011;44851;45.648;9.004;2024-03-22T05:29:59;97.03;;;75.60;;
59062;SDS011;44851;45.648;9.004;2024-03-22T05:32:24;99.37;;;75.90;;
59062;SDS011;44851;45.648;9.004;2024-03-22T05:34:51;91.13;;;71.50;;
59062;SDS011;44851;45.648;9.004;2024-03-22T05:37:16;98.00;;;75.77;;
59062;SDS011;44851;45.648;9.004;2024-03-22T05:39:42;101.67;;;75.57;;
59062;SDS011;44851;45.648;9.004;2024-03-22T05:42:07;97.60;;;76.20;;
59062;SDS011;44851;45.648;9.004;2024-03-22T05:44:33;98.40;;;75.70;;
59062;SDS011;44851;45.648;9.004;2024-03-22T05:46:58;93.47;;;70.40;;
59062;SDS011;44851;45.648;9.004;2024-03-22T05:49:23;95.30;;;73.83;;
59062;SDS011;44851;45.648;9.004;2024-03-22T05:51:49;92.57;;;70.93;;
59062;SDS011;44851;45.648;9.004;2024-03-22T05:54:14;94.67;;;72.97;;
59062;SDS011;44851;45.648;9.004;2024-03-22T05:56:39;92.83;;;71.97;;
59062;SDS011;44851;45.648;9.004;2024-03-22T05:59:05;96.20;;;72.50;;
59062;SDS011;44851;45.648;9.004;2024-03-22T06:01:31;95.97;;;71.50;;
59062;SDS011;44851;45.648;9.004;2024-03-22T06:03:57;98.03;;;74.60;;
59062;SDS011;44851;45.648;9.004;2024-03-22T06:06:22;99.17;;;73.40;;
59062;SDS011;44851;45.648;9.004;2024-03-22T06:08:50;96.33;;;70.73;;
59062;SDS011;44851;45.648;9.004;2024-03-22T06:11:17;94.47;;;72.13;;
59062;SDS011;44851;45.648;9.004;2024-03-22T06:13:43;90.20;;;70.07;;
59062;SDS011;44851;45.648;9.004;2024-03-22T06:16:09;95.10;;;72.90;;
59062;SDS011;44851;45.648;9.004;2024-03-22T06:18:34;92.03;;;70.70;;
59062;SDS011;44851;45.648;9.004;2024-03-22T06:20:59;92.03;;;71.97;;
59062;SDS011;44851;45.648;9.004;2024-03-22T06:23:25;90.43;;;70.40;;
59062;SDS011;44851;45.648;9.004;2024-03-22T06:25:53;88.47;;;67.70;;
59062;SDS011;44851;45.648;9.004;2024-03-22T06:28:19;94.93;;;69.90;;
59062;SDS011;44851;45.648;9.004;2024-03-22T06:30:44;90.90;;;68.90;;
59062;SDS011;44851;45.648;9.004;2024-03-22T06:33:10;87.67;;;69.17;;
59062;SDS011;44851;45.648;9.004;2024-03-22T06:35:35;90.20;;;68.47;;
59062;SDS011;44851;45.648;9.004;2024-03-22T06:38:00;85.17;;;68.50;;
59062;SDS011;44851;45.648;9.004;2024-03-22T06:40:27;87.03;;;67.43;;
59062;SDS011;44851;45.648;9.004;2024-03-22T06:42:53;88.60;;;69.60;;
59062;SDS011;44851;45.648;9.004;2024-03-22T06:45:18;88.63;;;69.20;;
59062;SDS011;44851;45.648;9.004;2024-03-22T06:47:43;89.83;;;69.57;;
59062;SDS011;44851;45.648;9.004;2024-03-22T06:50:09;86.10;;;67.03;;
59062;SDS011;44851;45.648;9.004;2024-03-22T06:52:36;90.13;;;69.77;;
59062;SDS011;44851;45.648;9.004;2024-03-22T06:55:01;84.57;;;66.47;;
59062;SDS011;44851;45.648;9.004;2024-03-22T06:57:28;89.97;;;67.77;;
59062;SDS011;44851;45.648;9.004;2024-03-22T06:59:53;85.13;;;68.30;;
59062;SDS011;44851;45.648;9.004;2024-03-22T07:02:18;84.87;;;64.83;;
59062;SDS011;44851;45.648;9.004;2024-03-22T07:04:44;85.23;;;69.57;;
59062;SDS011;44851;45.648;9.004;2024-03-22T07:07:09;87.63;;;68.47;;
59062;SDS011;44851;45.648;9.004;2024-03-22T07:09:34;84.33;;;68.20;;
59062;SDS011;44851;45.648;9.004;2024-03-22T07:12:00;82.83;;;67.17;;
59062;SDS011;44851;45.648;9.004;2024-03-22T07:14:26;85.27;;;68.47;;
59062;SDS011;44851;45.648;9.004;2024-03-22T07:16:51;78.10;;;65.97;;
59062;SDS011;44851;45.648;9.004;2024-03-22T07:19:20;80.47;;;65.03;;
59062;SDS011;44851;45.648;9.004;2024-03-22T07:21:46;80.17;;;65.60;;
59062;SDS011;44851;45.648;9.004;2024-03-22T07:24:12;78.60;;;62.77;;
59062;SDS011;44851;45.648;9.004;2024-03-22T07:26:37;82.53;;;65.47;;
59062;SDS011;44851;45.648;9.004;2024-03-22T07:29:03;81.37;;;63.77;;
59062;SDS011;44851;45.648;9.004;2024-03-22T07:31:28;81.30;;;64.23;;
59062;SDS011;44851;45.648;9.004;2024-03-22T07:33:53;79.37;;;62.03;;
59062;SDS011;44851;45.648;9.004;2024-03-22T07:36:19;71.23;;;59.77;;
59062;SDS011;44851;45.648;9.004;2024-03-22T07:38:44;75.20;;;60.87;;
59062;SDS011;44851;45.648;9.004;2024-03-22T07:41:10;72.03;;;59.47;;
59062;SDS011;44851;45.648;9.004;2024-03-22T07:43:35;71.03;;;58.47;;
59062;SDS011;44851;45.648;9.004;2024-03-22T07:46:01;70.03;;;58.53;;
59062;SDS011;44851;45.648;9.004;2024-03-22T07:48:26;69.57;;;58.10;;
59062;SDS011;44851;45.648;9.004;2024-03-22T07:50:57;67.10;;;54.27;;
59062;SDS011;44851;45.648;9.004;2024-03-22T07:53:23;68.40;;;55.30;;
59062;SDS011;44851;45.648;9.004;2024-03-22T07:55:49;60.70;;;52.30;;
59062;SDS011;44851;45.648;9.004;2024-03-22T07:58:14;63.60;;;53.93;;
59062;SDS011;44851;45.648;9.004;2024-03-22T08:00:39;64.27;;;53.87;;
59062;SDS011;44851;45.648;9.004;2024-03-22T08:03:05;63.63;;;53.47;;
59062;SDS011;44851;45.648;9.004;2024-03-22T08:05:30;59.97;;;51.70;;
59062;SDS011;44851;45.648;9.004;2024-03-22T08:07:56;63.83;;;53.60;;
59062;SDS011;44851;45.648;9.004;2024-03-22T08:10:21;67.90;;;57.70;;
59062;SDS011;44851;45.648;9.004;2024-03-22T08:12:48;64.93;;;55.23;;
59062;SDS011;44851;45.648;9.004;2024-03-22T08:15:13;66.43;;;55.33;;
59062;SDS011;44851;45.648;9.004;2024-03-22T08:17:39;62.20;;;52.10;;
59062;SDS011;44851;45.648;9.004;2024-03-22T08:20:05;58.43;;;51.40;;
59062;SDS011;44851;45.648;9.004;2024-03-22T08:22:31;61.23;;;54.30;;
59062;SDS011;44851;45.648;9.004;2024-03-22T08:24:57;60.03;;;52.40;;
59062;SDS011;44851;45.648;9.004;2024-03-22T08:27:22;63.23;;;53.53;;
59062;SDS011;44851;45.648;9.004;2024-03-22T08:29:48;64.50;;;52.70;;
59062;SDS011;44851;45.648;9.004;2024-03-22T08:32:13;62.63;;;53.07;;
59062;SDS011;44851;45.648;9.004;2024-03-22T08:34:38;69.80;;;58.60;;
59062;SDS011;44851;45.648;9.004;2024-03-22T08:37:04;59.13;;;51.53;;
59062;SDS011;44851;45.648;9.004;2024-03-22T08:39:29;61.93;;;54.27;;
59062;SDS011;44851;45.648;9.004;2024-03-22T08:41:55;63.57;;;55.93;;
59062;SDS011;44851;45.648;9.004;2024-03-22T08:44:20;59.73;;;53.20;;
59062;SDS011;44851;45.648;9.004;2024-03-22T08:46:46;65.23;;;54.57;;
59062;SDS011;44851;45.648;9.004;2024-03-22T08:49:12;67.87;;;55.77;;
59062;SDS011;44851;45.648;9.004;2024-03-22T08:51:38;62.23;;;52.83;;
59062;SDS011;44851;45.648;9.004;2024-03-22T08:54:04;62.93;;;53.93;;
59062;SDS011;44851;45.648;9.004;2024-03-22T08:56:30;64.80;;;54.27;;
59062;SDS011;44851;45.648;9.004;2024-03-22T08:58:55;60.60;;;52.13;;
59062;SDS011;44851;45.648;9.004;2024-03-22T09:01:21;65.57;;;56.17;;
59062;SDS011;44851;45.648;9.004;2024-03-22T09:03:47;60.50;;;52.43;;
59062;SDS011;44851;45.648;9.004;2024-03-22T09:06:15;65.27;;;55.23;;
59062;SDS011;44851;45.648;9.004;2024-03-22T09:08:41;64.40;;;54.33;;
59062;SDS011;44851;45.648;9.004;2024-03-22T09:11:06;61.30;;;53.47;;
59062;SDS011;44851;45.648;9.004;2024-03-22T09:13:32;62.87;;;53.83;;
59062;SDS011;44851;45.648;9.004;2024-03-22T09:15:59;61.37;;;53.17;;
59062;SDS011;44851;45.648;9.004;2024-03-22T09:18:25;58.73;;;51.67;;
59062;SDS011;44851;45.648;9.004;2024-03-22T09:20:51;62.47;;;53.33;;
59062;SDS011;44851;45.648;9.004;2024-03-22T09:23:21;62.17;;;54.30;;
59062;SDS011;44851;45.648;9.004;2024-03-22T09:25:46;64.13;;;55.37;;
59062;SDS011;44851;45.648;9.004;2024-03-22T09:28:12;60.70;;;52.60;;
59062;SDS011;44851;45.648;9.004;2024-03-22T09:30:38;59.73;;;52.87;;
59062;SDS011;44851;45.648;9.004;2024-03-22T09:33:05;60.03;;;52.93;;
59062;SDS011;44851;45.648;9.004;2024-03-22T09:35:33;62.13;;;54.63;;
59062;SDS011;44851;45.648;9.004;2024-03-22T09:37:59;60.57;;;52.37;;
59062;SDS011;44851;45.648;9.004;2024-03-22T09:40:24;66.93;;;57.97;;
59062;SDS011;44851;45.648;9.004;2024-03-22T09:42:49;64.13;;;54.23;;
59062;SDS011;44851;45.648;9.004;2024-03-22T09:45:17;61.17;;;53.13;;
59062;SDS011;44851;45.648;9.004;2024-03-22T09:47:45;62.97;;;54.40;;
59062;SDS011;44851;45.648;9.004;2024-03-22T09:50:13;63.57;;;55.17;;
59062;SDS011;44851;45.648;9.004;2024-03-22T09:52:39;61.03;;;52.67;;
59062;SDS011;44851;45.648;9.004;2024-03-22T09:55:06;59.53;;;52.30;;
59062;SDS011;44851;45.648;9.004;2024-03-22T09:57:33;57.17;;;50.47;;
59062;SDS011;44851;45.648;9.004;2024-03-22T10:00:02;55.00;;;48.80;;
59062;SDS011;44851;45.648;9.004;2024-03-22T10:02:28;55.73;;;49.20;;
59062;SDS011;44851;45.648;9.004;2024-03-22T10:04:56;54.57;;;46.83;;
59062;SDS011;44851;45.648;9.004;2024-03-22T10:07:21;65.77;;;55.47;;
59062;SDS011;44851;45.648;9.004;2024-03-22T10:09:47;56.70;;;49.87;;
59062;SDS011;44851;45.648;9.004;2024-03-22T10:12:12;57.03;;;50.80;;
59062;SDS011;44851;45.648;9.004;2024-03-22T10:14:38;55.47;;;49.50;;
59062;SDS011;44851;45.648;9.004;2024-03-22T10:17:05;54.70;;;47.83;;
59062;SDS011;44851;45.648;9.004;2024-03-22T10:19:30;57.57;;;50.87;;
59062;SDS011;44851;45.648;9.004;2024-03-22T10:22:02;55.70;;;47.90;;
59062;SDS011;44851;45.648;9.004;2024-03-22T10:24:28;54.40;;;48.50;;
59062;SDS011;44851;45.648;9.004;2024-03-22T10:26:55;55.43;;;48.50;;
59062;SDS011;44851;45.648;9.004;2024-03-22T10:29:21;54.03;;;48.07;;
59062;SDS011;44851;45.648;9.004;2024-03-22T10:31:47;56.87;;;50.00;;
59062;SDS011;44851;45.648;9.004;2024-03-22T10:34:13;55.97;;;49.90;;
59062;SDS011;44851;45.648;9.004;2024-03-22T10:36:39;55.73;;;48.37;;
59062;SDS011;44851;45.648;9.004;2024-03-22T10:39:05;53.00;;;45.80;;
59062;SDS011;44851;45.648;9.004;2024-03-22T10:41:30;58.77;;;50.40;;
59062;SDS011;44851;45.648;9.004;2024-03-22T10:43:56;52.60;;;46.83;;
59062;SDS011;44851;45.648;9.004;2024-03-22T10:46:23;51.63;;;46.03;;
59062;SDS011;44851;45.648;9.004;2024-03-22T10:48:55;49.03;;;43.83;;
59062;SDS011;44851;45.648;9.004;2024-03-22T10:51:22;44.83;;;40.03;;
59062;SDS011;44851;45.648;9.004;2024-03-22T10:53:49;46.30;;;40.60;;
59062;SDS011;44851;45.648;9.004;2024-03-22T10:56:19;50.47;;;44.87;;
59062;SDS011;44851;45.648;9.004;2024-03-22T10:58:46;47.50;;;42.03;;
59062;SDS011;44851;45.648;9.004;2024-03-22T11:01:22;46.57;;;41.57;;
59062;SDS011;44851;45.648;9.004;2024-03-22T11:03:48;46.03;;;41.03;;
59062;SDS011;44851;45.648;9.004;2024-03-22T11:06:17;41.77;;;36.27;;
59062;SDS011;44851;45.648;9.004;2024-03-22T11:08:43;36.47;;;32.67;;
59062;SDS011;44851;45.648;9.004;2024-03-22T11:11:12;34.60;;;30.50;;
59062;SDS011;44851;45.648;9.004;2024-03-22T11:13:40;31.47;;;28.07;;
59062;SDS011;44851;45.648;9.004;2024-03-22T11:16:05;31.00;;;26.50;;
59062;SDS011;44851;45.648;9.004;2024-03-22T11:18:32;28.43;;;25.40;;
59062;SDS011;44851;45.648;9.004;2024-03-22T11:20:59;31.33;;;27.33;;
59062;SDS011;44851;45.648;9.004;2024-03-22T11:23:25;27.03;;;24.17;;
59062;SDS011;44851;45.648;9.004;2024-03-22T11:25:50;32.57;;;28.40;;
59062;SDS011;44851;45.648;9.004;2024-03-22T11:28:16;28.77;;;25.67;;
59062;SDS011;44851;45.648;9.004;2024-03-22T11:30:41;27.07;;;24.17;;
59062;SDS011;44851;45.648;9.004;2024-03-22T11:33:06;32.87;;;29.43;;
59062;SDS011;44851;45.648;9.004;2024-03-22T11:35:33;34.20;;;30.60;;
59062;SDS011;44851;45.648;9.004;2024-03-22T11:37:58;35.93;;;32.03;;
59062;SDS011;44851;45.648;9.004;2024-03-22T11:40:25;37.63;;;33.67;;
59062;SDS011;44851;45.648;9.004;2024-03-22T11:42:51;35.43;;;30.47;;
59062;SDS011;44851;45.648;9.004;2024-03-22T11:45:19;40.07;;;34.67;;
59062;SDS011;44851;45.648;9.004;2024-03-22T11:47:48;34.70;;;31.13;;
59062;SDS011;44851;45.648;9.004;2024-03-22T11:50:14;39.90;;;35.70;;
59062;SDS011;44851;45.648;9.004;2024-03-22T11:52:43;41.03;;;35.47;;
59062;SDS011;44851;45.648;9.004;2024-03-22T11:55:12;37.60;;;33.57;;
59062;SDS011;44851;45.648;9.004;2024-03-22T11:57:37;42.87;;;38.27;;
59062;SDS011;44851;45.648;9.004;2024-03-22T12:00:03;38.43;;;34.27;;
59062;SDS011;44851;45.648;9.004;2024-03-22T12:02:34;40.77;;;36.27;;
59062;SDS011;44851;45.648;9.004;2024-03-22T12:05:01;37.83;;;33.57;;
59062;SDS011;44851;45.648;9.004;2024-03-22T12:07:26;38.07;;;32.70;;
59062;SDS011;44851;45.648;9.004;2024-03-22T12:09:51;36.70;;;32.90;;
59062;SDS011;44851;45.648;9.004;2024-03-22T12:12:17;35.30;;;31.60;;
59062;SDS011;44851;45.648;9.004;2024-03-22T12:14:46;33.07;;;29.63;;
59062;SDS011;44851;45.648;9.004;2024-03-22T12:17:11;32.53;;;29.17;;
59062;SDS011;44851;45.648;9.004;2024-03-22T12:19:37;32.20;;;28.70;;
59062;SDS011;44851;45.648;9.004;2024-03-22T12:22:02;33.70;;;30.07;;
59062;SDS011;44851;45.648;9.004;2024-03-22T12:24:27;34.57;;;30.83;;
59062;SDS011;44851;45.648;9.004;2024-03-22T12:26:53;35.93;;;32.27;;
59062;SDS011;44851;45.648;9.004;2024-03-22T12:29:19;33.80;;;30.27;;
59062;SDS011;44851;45.648;9.004;2024-03-22T12:31:45;35.63;;;31.83;;
59062;SDS011;44851;45.648;9.004;2024-03-22T12:34:11;37.83;;;32.00;;
59062;SDS011;44851;45.648;9.004;2024-03-22T12:36:37;42.57;;;38.03;;
59062;SDS011;44851;45.648;9.004;2024-03-22T12:39:02;44.43;;;39.70;;
59062;SDS011;44851;45.648;9.004;2024-03-22T12:41:28;41.87;;;37.47;;
59062;SDS011;44851;45.648;9.004;2024-03-22T12:43:57;44.40;;;37.33;;
59062;SDS011;44851;45.648;9.004;2024-03-22T12:46:22;43.07;;;38.57;;
59062;SDS011;44851;45.648;9.004;2024-03-22T12:48:47;41.70;;;37.23;;
59062;SDS011;44851;45.648;9.004;2024-03-22T12:51:13;42.10;;;37.53;;
59062;SDS011;44851;45.648;9.004;2024-03-22T12:53:38;35.20;;;31.50;;
59062;SDS011;44851;45.648;9.004;2024-03-22T12:56:04;34.97;;;31.17;;
59062;SDS011;44851;45.648;9.004;2024-03-22T12:58:30;30.73;;;27.47;;
59062;SDS011;44851;45.648;9.004;2024-03-22T13:00:56;39.77;;;35.57;;
59062;SDS011;44851;45.648;9.004;2024-03-22T13:03:22;38.73;;;34.83;;
59062;SDS011;44851;45.648;9.004;2024-03-22T13:05:47;36.80;;;33.00;;
59062;SDS011;44851;45.648;9.004;2024-03-22T13:08:12;35.67;;;30.77;;
59062;SDS011;44851;45.648;9.004;2024-03-22T13:10:38;35.97;;;32.27;;
59062;SDS011;44851;45.648;9.004;2024-03-22T13:13:08;34.00;;;30.40;;
59062;SDS011;44851;45.648;9.004;2024-03-22T13:15:33;35.10;;;31.47;;
59062;SDS011;44851;45.648;9.004;2024-03-22T13:18:00;34.33;;;29.97;;
59062;SDS011;44851;45.648;9.004;2024-03-22T13:20:25;33.80;;;30.17;;
59062;SDS011;44851;45.648;9.004;2024-03-22T13:22:51;33.63;;;30.13;;
59062;SDS011;44851;45.648;9.004;2024-03-22T13:25:16;38.80;;;34.70;;
59062;SDS011;44851;45.648;9.004;2024-03-22T13:27:42;43.57;;;38.20;;
59062;SDS011;44851;45.648;9.004;2024-03-22T13:30:07;44.23;;;39.47;;
59062;SDS011;44851;45.648;9.004;2024-03-22T13:32:37;40.53;;;36.30;;
59062;SDS011;44851;45.648;9.004;2024-03-22T13:35:02;37.10;;;31.73;;
59062;SDS011;44851;45.648;9.004;2024-03-22T13:37:28;38.23;;;34.10;;
59062;SDS011;44851;45.648;9.004;2024-03-22T13:39:54;37.07;;;33.27;;
59062;SDS011;44851;45.648;9.004;2024-03-22T13:42:19;37.03;;;33.13;;
59062;SDS011;44851;45.648;9.004;2024-03-22T13:44:45;35.60;;;31.87;;
59062;SDS011;44851;45.648;9.004;2024-03-22T13:47:10;33.27;;;29.77;;
59062;SDS011;44851;45.648;9.004;2024-03-22T13:49:35;33.73;;;29.97;;
59062;SDS011;44851;45.648;9.004;2024-03-22T13:52:01;32.33;;;28.90;;
59062;SDS011;44851;45.648;9.004;2024-03-22T13:54:26;31.30;;;28.00;;
59062;SDS011;44851;45.648;9.004;2024-03-22T13:56:51;30.77;;;27.53;;
59062;SDS011;44851;45.648;9.004;2024-03-22T13:59:17;32.77;;;27.80;;
59062;SDS011;44851;45.648;9.004;2024-03-22T14:01:42;31.20;;;27.70;;
59062;SDS011;44851;45.648;9.004;2024-03-22T14:04:10;28.10;;;24.27;;
59062;SDS011;44851;45.648;9.004;2024-03-22T14:06:37;25.67;;;22.97;;
59062;SDS011;44851;45.648;9.004;2024-03-22T14:09:02;26.60;;;23.67;;
59062;SDS011;44851;45.648;9.004;2024-03-22T14:11:29;26.27;;;23.57;;